Time;durP1;ratioP1;P1;durP2;ratioP2;P2;SDS_P1;SDS_P2;PMS_P1;PMS_P2;Temp;Humidity;BMP_temperature;BMP_pressure;BME280_temperature;BME280_humidity;BME280_pressure;Samples;Min_cycle;Max_cycle;Signal;HPM_P1;HPM_P2
2022/10/27 00:00:54;;;;;;;46.20;23.90;;;;;;;6.44;80.26;99669.64;86619;1288;22468;-81
2022/10/27 00:03:10;;;;;;;43.10;22.40;;;;;;;6.40;80.17;99667.80;86111;1281;26073;-81
2022/10/27 00:05:12;;;;;;;40.80;21.50;;;;;;;6.31;80.12;99666.75;86475;1284;22908;-81
2022/10/27 00:07:13;;;;;;;43.80;20.90;;;;;;;6.27;80.09;99669.45;86402;1290;22452;-80
2022/10/27 00:09:15;;;;;;;35.80;20.20;;;;;;;6.24;80.13;99669.85;86553;1298;22770;-80
2022/10/27 00:11:17;;;;;;;38.10;20.30;;;;;;;6.19;79.93;99668.20;86532;1288;22494;-80
2022/10/27 00:13:19;;;;;;;38.10;21.10;;;;;;;6.13;80.00;99670.42;85980;1289;25271;-80
2022/10/27 00:15:21;;;;;;;31.90;19.90;;;;;;;6.09;79.99;99671.89;86036;1290;24234;-81
2022/10/27 00:17:23;;;;;;;44.30;22.70;;;;;;;6.04;80.01;99673.03;85961;1288;22515;-80
2022/10/27 00:19:25;;;;;;;29.40;19.40;;;;;;;6.00;80.07;99676.05;85976;1297;22508;-80
2022/10/27 00:21:27;;;;;;;33.50;20.70;;;;;;;5.94;79.90;99675.96;86102;1289;22896;-80
2022/10/27 00:23:28;;;;;;;34.60;20.80;;;;;;;5.89;80.02;99674.31;86125;1294;22661;-80
2022/10/27 00:25:30;;;;;;;44.60;20.40;;;;;;;5.87;80.00;99675.75;85995;1283;24283;-81
2022/10/27 00:27:31;;;;;;;31.60;20.50;;;;;;;5.84;80.11;99673.87;86014;1287;22753;-81
2022/10/27 00:29:33;;;;;;;30.70;19.40;;;;;;;5.80;80.18;99673.75;86100;1291;25890;-81
2022/10/27 00:31:35;;;;;;;36.20;20.90;;;;;;;5.79;80.00;99678.67;86051;1288;22504;-81
2022/10/27 00:33:37;;;;;;;29.40;19.80;;;;;;;5.75;80.00;99681.70;86024;1291;24284;-80
2022/10/27 00:35:38;;;;;;;38.20;21.30;;;;;;;5.71;79.88;99683.16;86092;1285;23395;-80
2022/10/27 00:37:40;;;;;;;34.50;20.30;;;;;;;5.67;80.00;99679.40;86057;1295;25564;-81
2022/10/27 00:39:42;;;;;;;32.30;20.50;;;;;;;5.64;80.08;99682.06;86622;1288;23264;-81
2022/10/27 00:41:46;;;;;;;39.70;20.50;;;;;;;5.63;80.07;99684.70;86435;1297;23916;-81
2022/10/27 00:43:47;;;;;;;31.30;20.70;;;;;;;5.62;80.26;99683.66;86448;1288;22615;-82
2022/10/27 00:45:49;;;;;;;43.40;21.90;;;;;;;5.59;80.11;99681.27;85986;1284;23281;-81
2022/10/27 00:47:52;;;;;;;43.10;23.60;;;;;;;5.56;80.14;99677.84;86494;1289;25263;-81
2022/10/27 00:50:00;;;;;;;38.40;24.00;;;;;;;5.56;80.24;99677.66;86481;1284;25376;-81
2022/10/27 00:52:06;;;;;;;41.40;24.00;;;;;;;5.55;80.12;99675.77;86687;1287;22494;-80
2022/10/27 00:54:08;;;;;;;42.80;24.80;;;;;;;5.55;80.18;99675.59;86087;1281;28437;-81
2022/10/27 00:56:10;;;;;;;46.10;26.10;;;;;;;5.54;80.34;99677.00;85804;1289;24390;-80
2022/10/27 00:58:16;;;;;;;42.30;24.80;;;;;;;5.52;80.25;99678.77;85837;1284;22625;-80
2022/10/27 01:00:18;;;;;;;38.90;26.00;;;;;;;5.51;80.27;99676.00;86014;1280;22592;-80
2022/10/27 01:02:19;;;;;;;41.60;26.20;;;;;;;5.52;80.33;99676.33;85911;1291;26693;-80
2022/10/27 01:04:32;;;;;;;41.50;24.60;;;;;;;5.52;80.36;99681.02;86030;1290;25216;-80
2022/10/27 01:06:34;;;;;;;38.90;24.20;;;;;;;5.50;80.38;99680.71;86037;1288;22478;-80
2022/10/27 01:08:37;;;;;;;38.80;25.40;;;;;;;5.47;80.36;99681.30;85927;1287;22905;-81
2022/10/27 01:10:39;;;;;;;40.80;24.60;;;;;;;5.44;80.21;99684.65;86010;1283;22750;-80
2022/10/27 01:12:42;;;;;;;37.70;24.40;;;;;;;5.42;80.39;99678.75;86015;1284;22550;-80
2022/10/27 01:14:44;;;;;;;35.50;23.90;;;;;;;5.43;80.41;99680.48;86120;1281;25686;-80
2022/10/27 01:17:07;;;;;;;42.80;23.70;;;;;;;5.42;80.36;99683.98;86002;1288;24247;-81
2022/10/27 01:19:15;;;;;;;32.30;21.20;;;;;;;5.39;80.38;99688.03;85932;1290;23065;-80
2022/10/27 01:21:45;;;;;;;36.60;21.70;;;;;;;5.39;80.34;99685.45;86033;1293;22696;-81
2022/10/27 01:23:55;;;;;;;44.50;22.20;;;;;;;5.36;80.34;99687.05;85942;1300;23357;-81
2022/10/27 01:26:15;;;;;;;38.10;19.60;;;;;;;5.33;80.29;99685.70;86626;1281;22472;-81
2022/10/27 01:28:35;;;;;;;33.70;19.70;;;;;;;5.29;80.42;99686.98;86602;1291;22611;-81
2022/10/27 01:30:55;;;;;;;33.70;18.10;;;;;;;5.25;80.38;99686.52;86669;1290;22489;-81
2022/10/27 01:33:05;;;;;;;35.80;19.10;;;;;;;5.24;80.46;99687.73;86535;1289;23213;-81
2022/10/27 01:35:11;;;;;;;46.80;20.30;;;;;;;5.24;80.48;99690.70;86562;1283;22470;-81
2022/10/27 01:37:22;;;;;;;39.30;17.40;;;;;;;5.24;80.43;99686.17;86512;1286;25561;-81
2022/10/27 01:39:30;;;;;;;37.20;19.80;;;;;;;5.23;80.59;99683.76;86608;1281;22522;-81
2022/10/27 01:42:01;;;;;;;41.50;19.00;;;;;;;5.23;80.56;99685.48;86803;1290;22503;-81
2022/10/27 01:44:40;;;;;;;34.10;19.30;;;;;;;5.25;80.69;99686.50;86985;1287;22620;-81
2022/10/27 01:46:42;;;;;;;33.20;19.70;;;;;;;5.24;80.74;99687.21;86801;1288;22853;-81
2022/10/27 01:48:45;;;;;;;41.40;21.50;;;;;;;5.25;80.73;99688.95;86635;1298;22597;-80
2022/10/27 01:50:47;;;;;;;43.60;22.20;;;;;;;5.26;80.69;99690.86;86339;1288;22425;-80
2022/10/27 01:52:49;;;;;;;38.30;19.70;;;;;;;5.25;80.73;99693.30;86220;1288;23268;-80
2022/10/27 01:54:51;;;;;;;47.10;20.90;;;;;;;5.26;80.60;99687.72;86117;1291;25277;-80
2022/10/27 01:57:07;;;;;;;41.90;22.10;;;;;;;5.26;80.78;99689.45;86245;1284;26596;-80
2022/10/27 01:59:22;;;;;;;35.30;20.80;;;;;;;5.28;80.82;99686.48;86261;1287;24252;-80
2022/10/27 02:02:03;;;;;;;49.60;20.80;;;;;;;5.29;80.77;99689.59;86330;1290;23008;-80
2022/10/27 02:04:17;;;;;;;36.20;19.40;;;;;;;5.31;80.91;99691.81;85762;1303;23378;-80
2022/10/27 02:06:37;;;;;;;34.90;19.10;;;;;;;5.32;80.94;99688.85;85838;1292;22708;-80
2022/10/27 02:08:57;;;;;;;40.80;19.10;;;;;;;5.33;80.83;99690.41;85785;1294;23625;-80
2022/10/27 02:11:03;;;;;;;49.20;19.80;;;;;;;5.34;80.92;99690.91;85663;1295;22517;-80
2022/10/27 02:13:06;;;;;;;41.60;19.90;;;;;;;5.33;80.86;99694.77;85634;1288;22537;-80
2022/10/27 02:15:19;;;;;;;32.80;20.30;;;;;;;5.32;80.84;99696.16;85800;1295;27969;-81
2022/10/27 02:17:22;;;;;;;41.60;22.80;;;;;;;5.29;80.89;99699.70;86338;1290;22562;-81
2022/10/27 02:19:31;;;;;;;43.40;23.50;;;;;;;5.27;80.79;99701.13;86191;1297;22542;-81
2022/10/27 02:21:34;;;;;;;50.60;24.30;;;;;;;5.28;80.87;99701.63;86263;1293;22536;-80
2022/10/27 02:23:36;;;;;;;47.90;24.90;;;;;;;5.28;81.05;99704.23;85508;1296;22532;-80
2022/10/27 02:25:51;;;;;;;49.00;23.50;;;;;;;5.29;80.98;99709.62;85241;1292;22545;-80
2022/10/27 02:27:58;;;;;;;46.70;24.70;;;;;;;5.30;81.02;99706.98;85644;1289;22582;-81
2022/10/27 02:30:02;;;;;;;54.60;23.90;;;;;;;5.30;80.95;99710.66;85734;1289;24226;-80
2022/10/27 02:32:08;;;;;;;43.70;25.00;;;;;;;5.31;81.07;99715.36;85624;1296;22573;-80
2022/10/27 02:34:11;;;;;;;52.20;26.00;;;;;;;5.30;81.01;99710.31;85475;1297;22553;-79
2022/10/27 02:36:13;;;;;;;39.00;24.20;;;;;;;5.31;81.09;99714.11;85574;1296;22517;-79
2022/10/27 02:38:15;;;;;;;45.90;24.80;;;;;;;5.30;81.06;99713.27;85446;1296;22839;-80
2022/10/27 02:40:16;;;;;;;46.40;25.90;;;;;;;5.28;81.07;99711.55;85859;1289;22512;-80
2022/10/27 02:42:18;;;;;;;50.70;25.80;;;;;;;5.27;81.04;99713.14;86177;1288;22496;-80
2022/10/27 02:44:20;;;;;;;56.30;25.10;;;;;;;5.26;80.98;99711.76;86123;1284;22472;-80
2022/10/27 02:46:21;;;;;;;41.50;24.90;;;;;;;5.28;81.09;99710.87;86142;1290;25495;-80
2022/10/27 02:48:23;;;;;;;41.40;24.20;;;;;;;5.28;81.05;99710.67;86193;1292;22486;-80
2022/10/27 02:50:25;;;;;;;46.40;24.20;;;;;;;5.27;81.02;99713.84;86136;1284;24241;-79
2022/10/27 02:52:26;;;;;;;45.60;25.00;;;;;;;5.23;81.04;99713.72;86170;1284;23217;-79
2022/10/27 02:54:28;;;;;;;44.40;26.30;;;;;;;5.22;80.96;99717.22;86087;1287;22498;-79
2022/10/27 02:56:30;;;;;;;44.10;25.60;;;;;;;5.19;81.08;99719.70;86030;1283;22521;-79
2022/10/27 02:58:32;;;;;;;53.70;26.60;;;;;;;5.18;81.10;99722.86;86013;1290;22641;-80
2022/10/27 03:00:35;;;;;;;45.10;26.90;;;;;;;5.18;81.04;99721.98;85961;1291;24255;-80
2022/10/27 03:02:37;;;;;;;42.80;26.70;;;;;;;5.15;81.11;99723.59;86205;1290;26128;-80
2022/10/27 03:04:39;;;;;;;42.10;26.40;;;;;;;5.16;81.10;99724.79;85942;1283;22480;-80
2022/10/27 03:06:40;;;;;;;45.90;24.90;;;;;;;5.19;81.23;99727.20;86070;1284;25552;-80
2022/10/27 03:08:42;;;;;;;43.50;24.50;;;;;;;5.20;81.30;99728.21;86196;1290;22646;-80
2022/10/27 03:10:44;;;;;;;42.50;24.70;;;;;;;5.21;81.26;99731.86;86093;1289;22560;-80
2022/10/27 03:12:47;;;;;;;52.40;25.50;;;;;;;5.22;81.37;99729.42;86342;1290;22541;-80
2022/10/27 03:14:48;;;;;;;42.80;24.90;;;;;;;5.24;81.38;99732.54;86241;1283;22531;-80
2022/10/27 03:16:50;;;;;;;57.30;25.30;;;;;;;5.23;81.29;99736.04;86188;1281;22556;-80
2022/10/27 03:18:51;;;;;;;45.10;25.00;;;;;;;5.24;81.32;99739.84;86226;1296;22596;-80
2022/10/27 03:20:53;;;;;;;49.60;25.00;;;;;;;5.23;81.20;99739.67;86073;1284;23065;-80
2022/10/27 03:22:54;;;;;;;59.50;24.00;;;;;;;5.23;81.27;99737.94;86001;1291;25342;-80
2022/10/27 03:24:56;;;;;;;55.60;24.10;;;;;;;5.24;81.35;99742.81;86138;1284;24914;-80
2022/10/27 03:26:58;;;;;;;67.20;24.30;;;;;;;5.22;81.23;99742.48;86099;1290;22536;-80
2022/10/27 03:29:00;;;;;;;67.70;22.30;;;;;;;5.21;81.16;99743.71;86114;1283;22593;-79
2022/10/27 03:31:03;;;;;;;56.10;22.40;;;;;;;5.19;81.27;99747.40;86174;1290;22776;-79
2022/10/27 03:33:05;;;;;;;50.80;23.60;;;;;;;5.16;81.19;99747.27;86089;1284;22551;-80
2022/10/27 03:35:07;;;;;;;59.00;23.20;;;;;;;5.15;81.25;99745.38;86132;1290;24238;-80
2022/10/27 03:37:08;;;;;;;66.80;22.40;;;;;;;5.10;81.37;99737.77;86074;1284;22531;-80
2022/10/27 03:39:10;;;;;;;60.50;21.50;;;;;;;5.15;81.40;99745.20;86152;1284;22570;-81
2022/10/27 03:41:11;;;;;;;59.50;25.30;;;;;;;5.13;81.33;99745.91;85944;1287;25273;-80
2022/10/27 03:43:13;;;;;;;69.00;20.90;;;;;;;5.12;81.29;99750.45;86132;1289;22482;-80
2022/10/27 03:45:15;;;;;;;64.50;21.90;;;;;;;5.10;81.21;99749.27;86136;1290;25544;-79
2022/10/27 03:47:17;;;;;;;45.20;20.70;;;;;;;5.08;81.21;99747.73;86055;1290;25700;-80
2022/10/27 03:49:18;;;;;;;42.70;21.00;;;;;;;5.07;81.07;99748.09;86006;1283;22486;-80
2022/10/27 03:51:22;;;;;;;50.70;21.50;;;;;;;5.05;81.27;99747.95;86146;1283;25214;-80
2022/10/27 03:53:23;;;;;;;51.80;19.60;;;;;;;5.03;81.16;99749.36;86215;1287;22571;-80
2022/10/27 03:55:25;;;;;;;54.10;17.90;;;;;;;4.93;81.30;99734.69;86161;1288;22481;-80
2022/10/27 03:57:28;;;;;;;37.70;18.10;;;;;;;4.97;81.14;99752.92;86278;1290;22497;-80
2022/10/27 03:59:30;;;;;;;70.80;19.20;;;;;;;4.92;81.14;99751.92;86120;1291;22511;-80
2022/10/27 04:01:33;;;;;;;53.10;19.10;;;;;;;4.90;81.08;99755.61;86001;1290;24278;-81
2022/10/27 04:03:35;;;;;;;63.90;19.00;;;;;;;4.88;81.22;99758.08;86645;1290;22489;-81
2022/10/27 04:05:38;;;;;;;46.20;19.60;;;;;;;4.87;81.15;99757.92;86543;1284;22475;-80
2022/10/27 04:07:39;;;;;;;61.60;22.00;;;;;;;4.84;81.23;99758.14;86246;1288;25253;-81
2022/10/27 04:09:41;;;;;;;40.20;20.50;;;;;;;4.84;81.31;99761.44;86191;1288;25101;-80
2022/10/27 04:11:42;;;;;;;43.40;20.90;;;;;;;4.83;81.26;99763.02;85976;1291;24258;-79
2022/10/27 04:13:46;;;;;;;49.00;22.30;;;;;;;4.82;81.37;99766.86;86034;1284;24885;-80
2022/10/27 04:15:47;;;;;;;47.00;24.30;;;;;;;4.83;81.32;99768.95;86153;1298;22510;-80
2022/10/27 04:17:53;;;;;;;96.20;26.90;;;;;;;4.84;81.47;99768.74;86338;1286;25366;-79
2022/10/27 04:19:54;;;;;;;40.90;24.60;;;;;;;4.86;81.62;99767.69;86140;1291;25290;-80
2022/10/27 04:21:56;;;;;;;51.60;27.20;;;;;;;4.88;81.69;99767.83;86151;1289;22631;-80
2022/10/27 04:23:58;;;;;;;50.60;28.10;;;;;;;4.92;81.54;99766.22;86062;1291;22647;-80
2022/10/27 04:25:59;;;;;;;72.10;29.40;;;;;;;4.95;81.78;99767.75;86178;1288;24278;-80
2022/10/27 04:28:05;;;;;;;50.90;28.00;;;;;;;4.98;81.89;99767.71;86675;1290;22520;-80
2022/10/27 04:30:07;;;;;;;128.10;32.00;;;;;;;5.02;81.90;99767.14;86723;1281;22506;-81
2022/10/27 04:32:09;;;;;;;62.80;28.70;;;;;;;5.05;82.00;99761.69;86693;1288;23059;-81
2022/10/27 04:34:10;;;;;;;54.20;28.00;;;;;;;5.08;81.96;99759.22;86786;1288;24378;-81
2022/10/27 04:36:12;;;;;;;45.00;26.20;;;;;;;5.11;82.08;99761.29;86544;1290;25554;-81
2022/10/27 04:38:14;;;;;;;41.40;26.10;;;;;;;5.13;82.03;99758.81;86595;1288;22692;-80
2022/10/27 04:40:15;;;;;;;40.40;26.20;;;;;;;5.14;82.07;99757.41;86600;1290;22617;-81
2022/10/27 04:42:17;;;;;;;41.60;25.30;;;;;;;5.15;82.12;99760.01;86701;1294;22529;-81
2022/10/27 04:44:19;;;;;;;37.60;23.50;;;;;;;5.16;82.04;99766.43;86724;1312;24369;-81
2022/10/27 04:46:20;;;;;;;38.40;23.30;;;;;;;5.17;81.99;99767.13;86526;1291;22637;-81
2022/10/27 04:48:23;;;;;;;47.60;25.30;;;;;;;5.16;82.13;99767.30;86654;1297;22480;-81
2022/10/27 04:50:24;;;;;;;40.80;23.90;;;;;;;5.17;81.99;99768.34;86621;1307;22458;-80
2022/10/27 04:52:26;;;;;;;48.00;26.00;;;;;;;5.15;82.03;99767.67;86545;1293;22484;-80
2022/10/27 04:54:28;;;;;;;39.30;25.60;;;;;;;5.20;81.98;99777.17;86177;1289;25922;-80
2022/10/27 04:56:30;;;;;;;43.60;24.60;;;;;;;5.22;82.06;99779.77;86186;1283;22487;-80
2022/10/27 04:58:32;;;;;;;125.40;28.80;;;;;;;5.19;82.01;99776.84;86164;1292;22511;-79
2022/10/27 05:00:33;;;;;;;121.20;28.20;;;;;;;5.24;82.12;99786.02;86162;1291;22542;-80
2022/10/27 05:02:35;;;;;;;166.90;28.90;;;;;;;5.24;82.10;99781.64;86225;1291;22624;-80
2022/10/27 05:04:37;;;;;;;111.70;27.70;;;;;;;5.23;82.05;99782.73;86679;1284;23084;-80
2022/10/27 05:06:38;;;;;;;124.70;27.00;;;;;;;5.24;82.12;99783.56;86657;1298;23378;-80
2022/10/27 05:08:40;;;;;;;152.60;30.30;;;;;;;5.24;82.12;99785.85;86262;1283;24251;-81
2022/10/27 05:10:42;;;;;;;257.10;32.90;;;;;;;5.25;82.09;99789.48;86267;1281;23723;-80
2022/10/27 05:12:44;;;;;;;202.60;30.80;;;;;;;5.26;82.22;99791.38;86370;1294;22618;-80
2022/10/27 05:14:45;;;;;;;75.80;27.60;;;;;;;5.27;82.15;99794.52;86258;1280;24240;-79
2022/10/27 05:16:47;;;;;;;112.80;28.80;;;;;;;5.28;82.16;99796.58;86154;1290;23401;-81
2022/10/27 05:18:48;;;;;;;91.30;30.00;;;;;;;5.28;82.16;99797.81;86217;1298;22534;-81
2022/10/27 05:20:50;;;;;;;112.10;29.80;;;;;;;5.26;82.04;99798.19;86153;1293;23959;-79
2022/10/27 05:22:52;;;;;;;109.90;29.60;;;;;;;5.24;81.96;99797.34;86302;1312;22538;-80
2022/10/27 05:24:53;;;;;;;97.40;28.70;;;;;;;5.21;82.00;99795.64;86104;1298;22744;-80
2022/10/27 05:26:55;;;;;;;107.40;28.00;;;;;;;5.19;82.05;99801.08;86504;1293;22527;-80
2022/10/27 05:28:56;;;;;;;65.40;28.50;;;;;;;5.17;82.11;99801.44;86606;1290;22540;-79
2022/10/27 05:30:59;;;;;;;103.80;29.20;;;;;;;5.17;82.14;99806.66;86338;1291;22500;-79
2022/10/27 05:33:01;;;;;;;67.90;27.70;;;;;;;5.17;82.03;99807.73;86117;1288;22494;-80
2022/10/27 05:35:02;;;;;;;69.00;27.10;;;;;;;5.15;81.97;99807.21;86198;1290;22714;-79
2022/10/27 05:37:04;;;;;;;75.30;29.20;;;;;;;5.15;82.11;99805.13;86255;1294;27660;-80
2022/10/27 05:39:06;;;;;;;67.20;27.30;;;;;;;5.15;82.11;99809.66;86350;1298;22502;-79
2022/10/27 05:41:09;;;;;;;89.40;28.50;;;;;;;5.16;82.09;99812.60;86320;1289;23505;-80
2022/10/27 05:43:10;;;;;;;76.60;28.80;;;;;;;5.16;82.15;99816.42;86292;1290;24374;-79
2022/10/27 05:45:12;;;;;;;67.90;26.00;;;;;;;5.16;82.08;99818.52;86315;1280;22499;-80
2022/10/27 05:47:14;;;;;;;85.90;29.30;;;;;;;5.17;82.05;99820.43;86634;1297;22679;-80
2022/10/27 05:49:17;;;;;;;91.20;30.00;;;;;;;5.18;82.29;99821.80;86694;1291;24331;-80
2022/10/27 05:51:18;;;;;;;119.90;31.50;;;;;;;5.20;82.29;99821.95;86138;1284;22534;-80
2022/10/27 05:53:21;;;;;;;107.70;31.50;;;;;;;5.24;82.31;99821.91;86060;1287;25391;-80
2022/10/27 05:55:23;;;;;;;73.10;28.70;;;;;;;5.22;82.36;99816.36;86110;1290;24247;-80
2022/10/27 05:57:25;;;;;;;78.60;26.90;;;;;;;5.28;82.38;99823.41;86755;1290;24437;-80
2022/10/27 05:59:26;;;;;;;72.20;26.90;;;;;;;5.30;82.36;99827.58;86582;1284;22525;-80
2022/10/27 06:01:28;;;;;;;63.70;25.70;;;;;;;5.34;82.41;99836.42;86802;1288;22535;-81
2022/10/27 06:03:30;;;;;;;61.20;25.20;;;;;;;5.37;82.45;99834.28;86824;1290;22548;-81
2022/10/27 06:05:35;;;;;;;61.00;26.30;;;;;;;5.41;82.51;99834.94;86742;1304;24164;-79
2022/10/27 06:07:36;;;;;;;49.30;24.60;;;;;;;5.46;82.48;99839.21;86141;1291;25922;-79
2022/10/27 06:09:38;;;;;;;51.40;23.80;;;;;;;5.51;82.68;99841.41;86316;1280;23442;-80
2022/10/27 06:11:40;;;;;;;47.40;24.80;;;;;;;5.58;82.73;99841.84;86113;1291;22520;-78
2022/10/27 06:13:41;;;;;;;56.10;23.90;;;;;;;5.66;82.84;99848.38;86103;1283;24220;-79
2022/10/27 06:15:43;;;;;;;51.40;24.70;;;;;;;5.73;82.85;99854.02;86047;1291;22607;-78
2022/10/27 06:17:51;;;;;;;64.90;26.10;;;;;;;5.80;82.87;99855.31;86183;1284;25870;-79
2022/10/27 06:19:52;;;;;;;87.30;32.10;;;;;;;5.88;83.12;99862.52;86184;1301;22616;-78
2022/10/27 06:21:54;;;;;;;149.60;32.10;;;;;;;5.94;83.09;99858.77;86158;1289;23942;-79
2022/10/27 06:23:55;;;;;;;159.90;30.70;;;;;;;6.02;83.16;99864.98;86000;1292;22470;-79
2022/10/27 06:25:57;;;;;;;97.50;26.70;;;;;;;6.10;83.28;99864.85;86216;1288;24250;-80
2022/10/27 06:28:01;;;;;;;86.80;27.40;;;;;;;6.16;83.35;99866.31;86120;1284;22642;-79
2022/10/27 06:30:05;;;;;;;51.60;28.60;;;;;;;6.23;83.38;99866.91;86222;1290;22489;-79
2022/10/27 06:32:06;;;;;;;58.50;28.80;;;;;;;6.30;83.31;99864.36;86319;1284;22546;-80
2022/10/27 06:34:08;;;;;;;55.70;28.10;;;;;;;6.37;83.15;99867.37;86262;1288;22491;-79
2022/10/27 06:36:10;;;;;;;45.30;28.20;;;;;;;6.44;83.25;99869.36;86110;1291;24279;-80
2022/10/27 06:38:15;;;;;;;60.80;31.10;;;;;;;6.52;83.40;99869.23;86227;1283;22640;-79
2022/10/27 06:40:19;;;;;;;50.40;30.10;;;;;;;6.60;83.40;99867.15;86206;1288;22526;-78
2022/10/27 06:42:23;;;;;;;52.90;30.70;;;;;;;6.68;83.49;99871.93;86226;1287;22508;-79
2022/10/27 06:44:25;;;;;;;54.00;29.80;;;;;;;6.74;83.35;99876.17;86099;1283;22529;-79
2022/10/27 06:46:27;;;;;;;63.60;30.70;;;;;;;6.80;83.29;99875.02;86129;1289;22473;-79
2022/10/27 06:48:29;;;;;;;57.60;31.00;;;;;;;6.85;83.32;99874.40;86222;1283;22547;-79
2022/10/27 06:50:30;;;;;;;55.10;29.80;;;;;;;6.91;83.53;99875.86;86168;1291;22545;-79
2022/10/27 06:52:36;;;;;;;65.00;30.60;;;;;;;6.96;83.58;99876.28;86113;1288;24962;-79
2022/10/27 06:54:38;;;;;;;54.00;28.50;;;;;;;7.02;83.35;99877.23;86125;1284;22522;-79
2022/10/27 06:56:39;;;;;;;61.80;29.80;;;;;;;6.95;83.41;99857.98;86099;1287;22526;-79
2022/10/27 06:58:41;;;;;;;54.70;30.00;;;;;;;7.12;83.74;99878.78;86097;1284;22590;-79
2022/10/27 07:00:43;;;;;;;56.80;30.20;;;;;;;7.18;83.71;99876.41;85960;1291;25490;-79
2022/10/27 07:02:44;;;;;;;52.10;30.90;;;;;;;7.24;83.61;99879.59;86128;1283;25208;-79
2022/10/27 07:04:46;;;;;;;53.60;31.10;;;;;;;7.31;83.75;99881.73;86194;1283;22622;-78
2022/10/27 07:06:47;;;;;;;48.10;30.00;;;;;;;7.38;83.90;99888.05;86150;1290;23711;-80
2022/10/27 07:08:51;;;;;;;63.60;31.90;;;;;;;7.45;83.41;99896.13;86233;1291;22825;-78
2022/10/27 07:10:54;;;;;;;57.50;30.20;;;;;;;7.53;83.95;99900.17;86132;1291;22505;-79
2022/10/27 07:12:58;;;;;;;61.70;31.60;;;;;;;7.60;83.83;99900.19;86293;1280;24251;-79
2022/10/27 07:14:59;;;;;;;50.10;30.20;;;;;;;7.69;83.66;99899.66;86190;1291;22812;-79
2022/10/27 07:17:01;;;;;;;61.90;30.40;;;;;;;7.76;83.69;99899.51;86562;1290;24278;-80
2022/10/27 07:19:03;;;;;;;48.10;29.00;;;;;;;7.84;83.85;99902.66;86524;1283;22490;-79
2022/10/27 07:21:05;;;;;;;54.60;30.30;;;;;;;7.91;83.65;99906.88;86645;1283;24400;-80
2022/10/27 07:23:09;;;;;;;60.90;29.10;;;;;;;7.96;83.89;99904.64;86708;1288;22483;-80
2022/10/27 07:25:11;;;;;;;55.00;29.20;;;;;;;8.07;83.62;99909.31;86594;1289;24235;-79
2022/10/27 07:27:13;;;;;;;52.00;29.60;;;;;;;8.15;83.99;99908.09;86776;1287;22635;-79
2022/10/27 07:29:14;;;;;;;53.50;29.00;;;;;;;8.25;83.74;99915.03;86317;1284;23899;-79
2022/10/27 07:31:16;;;;;;;55.40;28.70;;;;;;;8.33;84.00;99915.36;86054;1284;24293;-79
2022/10/27 07:33:18;;;;;;;63.10;29.70;;;;;;;8.44;83.99;99920.38;86002;1284;22583;-79
2022/10/27 07:35:20;;;;;;;43.20;28.10;;;;;;;8.55;83.69;99924.66;86213;1281;24240;-79
2022/10/27 07:37:21;;;;;;;44.60;27.70;;;;;;;8.71;83.87;99927.09;86071;1290;24393;-79
2022/10/27 07:39:23;;;;;;;49.80;26.30;;;;;;;8.88;84.32;99925.26;85998;1284;22552;-79
2022/10/27 07:41:25;;;;;;;47.10;27.40;;;;;;;9.05;83.85;99926.02;85765;1290;256549;-79
2022/10/27 07:43:26;;;;;;;43.80;24.40;;;;;;;9.23;84.09;99926.61;86121;1294;25988;-80
2022/10/27 07:45:28;;;;;;;49.80;24.40;;;;;;;9.38;84.11;99927.42;86447;1288;22501;-78
2022/10/27 07:47:30;;;;;;;32.30;22.10;;;;;;;9.53;84.13;99926.48;86136;1283;22536;-79
2022/10/27 07:49:32;;;;;;;42.60;22.70;;;;;;;9.67;83.92;99925.71;86106;1287;25969;-80
2022/10/27 07:51:34;;;;;;;40.50;23.70;;;;;;;9.82;83.87;99927.73;85955;1290;22485;-80
2022/10/27 07:53:35;;;;;;;37.60;22.50;;;;;;;9.96;83.77;99925.92;86049;1283;22626;-79
2022/10/27 07:55:37;;;;;;;37.30;24.20;;;;;;;10.10;83.68;99925.51;86145;1290;24667;-79
2022/10/27 07:57:40;;;;;;;39.90;24.20;;;;;;;10.23;83.46;99928.41;85999;1290;24373;-79
2022/10/27 07:59:42;;;;;;;38.80;22.50;;;;;;;10.36;83.55;99930.48;86110;1283;22534;-81
2022/10/27 08:01:43;;;;;;;43.00;23.70;;;;;;;10.39;83.55;99912.15;85877;1291;22432;-80
2022/10/27 08:03:45;;;;;;;40.80;22.30;;;;;;;10.62;83.55;99930.02;86689;1290;22513;-80
2022/10/27 08:05:48;;;;;;;41.70;21.00;;;;;;;10.73;83.46;99926.85;86676;1290;25317;-80
2022/10/27 08:07:49;;;;;;;40.20;19.20;;;;;;;10.86;83.49;99922.37;86570;1290;22482;-79
2022/10/27 08:09:51;;;;;;;39.30;21.10;;;;;;;11.04;83.45;99924.39;86129;1290;22636;-79
2022/10/27 08:11:54;;;;;;;32.60;18.50;;;;;;;11.17;83.44;99923.42;86276;1280;22443;-79
2022/10/27 08:13:55;;;;;;;33.50;19.80;;;;;;;11.28;83.27;99921.95;86232;1289;24593;-80
2022/10/27 08:15:58;;;;;;;24.20;18.30;;;;;;;11.40;83.23;99925.59;86167;1283;22515;-79
2022/10/27 08:18:02;;;;;;;31.10;15.40;;;;;;;11.55;83.19;99924.34;86059;1290;25765;-78
2022/10/27 08:20:07;;;;;;;29.70;16.20;;;;;;;11.69;83.01;99928.90;86123;1290;23121;-80
2022/10/27 08:22:08;;;;;;;25.70;16.10;;;;;;;11.79;82.98;99928.21;86690;1291;22513;-80
2022/10/27 08:24:10;;;;;;;29.20;14.80;;;;;;;11.86;82.82;99930.55;86658;1290;22473;-79
2022/10/27 08:26:11;;;;;;;37.20;15.60;;;;;;;11.98;82.98;99929.44;86636;1288;22481;-80
2022/10/27 08:28:14;;;;;;;28.60;15.40;;;;;;;12.11;82.76;99933.53;86691;1295;23541;-80
2022/10/27 08:30:16;;;;;;;25.00;15.10;;;;;;;12.18;82.57;99938.34;86758;1287;22663;-79
2022/10/27 08:32:17;;;;;;;27.50;15.40;;;;;;;12.23;82.44;99940.10;86579;1291;22478;-79
2022/10/27 08:34:19;;;;;;;23.80;15.30;;;;;;;12.28;82.32;99944.13;86236;1290;22493;-79
2022/10/27 08:36:20;;;;;;;34.10;16.50;;;;;;;12.34;82.42;99946.52;86030;1283;22502;-79
2022/10/27 08:38:22;;;;;;;23.10;16.30;;;;;;;12.43;82.51;99952.16;85976;1283;25293;-79
2022/10/27 08:40:29;;;;;;;30.10;17.00;;;;;;;12.54;82.55;99948.38;86077;1287;23074;-79
2022/10/27 08:42:41;;;;;;;34.30;16.40;;;;;;;12.69;82.52;99949.87;86088;1283;24254;-79
2022/10/27 08:44:49;;;;;;;29.80;17.90;;;;;;;12.83;82.43;99951.43;86235;1288;22661;-79
2022/10/27 08:46:58;;;;;;;37.90;18.00;;;;;;;12.97;82.53;99953.48;86158;1287;25698;-80
2022/10/27 08:49:04;;;;;;;32.70;17.70;;;;;;;13.10;82.26;99957.52;86125;1290;22638;-80
2022/10/27 08:51:14;;;;;;;31.80;17.80;;;;;;;13.23;82.30;99952.55;86133;1291;22536;-79
2022/10/27 08:53:24;;;;;;;37.30;19.30;;;;;;;13.33;82.24;99948.40;86264;1287;22506;-79
2022/10/27 08:55:32;;;;;;;32.10;17.60;;;;;;;13.41;82.06;99943.84;86632;1290;23167;-79
2022/10/27 08:57:34;;;;;;;29.40;18.30;;;;;;;13.48;82.02;99941.23;86657;1284;22564;-79
2022/10/27 08:59:36;;;;;;;38.90;18.00;;;;;;;13.55;81.93;99939.52;86014;1290;22789;-79
2022/10/27 09:02:19;;;;;;;37.20;18.80;;;;;;;13.62;81.88;99942.20;85962;1283;22510;-79
2022/10/27 09:04:33;;;;;;;27.70;16.90;;;;;;;13.74;82.06;99937.08;86113;1293;22554;-79
2022/10/27 09:06:44;;;;;;;32.20;17.30;;;;;;;13.90;81.83;99940.23;86675;1281;24573;-79
2022/10/27 09:08:52;;;;;;;;;;;;;;;14.01;81.76;99939.19;86163;1296;22462;-80
2022/10/27 09:11:10;;;;;;;40.80;20.40;;;;;;;13.99;81.58;99941.42;86173;1280;24244;-79
2022/10/27 09:13:31;;;;;;;45.50;20.50;;;;;;;13.98;81.28;99947.45;86135;1289;23157;-79
2022/10/27 09:15:43;;;;;;;38.70;19.50;;;;;;;14.03;81.52;99950.60;86753;1288;25522;-79
2022/10/27 09:17:52;;;;;;;34.90;19.40;;;;;;;14.08;81.35;99953.52;86611;1294;25220;-79
2022/10/27 09:20:00;;;;;;;39.70;19.30;;;;;;;14.12;81.51;99950.86;86441;1291;25271;-79
2022/10/27 09:22:05;;;;;;;37.40;19.50;;;;;;;14.26;81.60;99954.81;86057;1288;22536;-79
2022/10/27 09:24:12;;;;;;;43.90;19.60;;;;;;;14.35;81.29;99959.31;86571;1287;22505;-79
2022/10/27 09:26:17;;;;;;;33.70;19.60;;;;;;;14.41;81.08;99963.84;86109;1287;22476;-77
2022/10/27 09:28:24;;;;;;;41.00;18.60;;;;;;;14.44;81.20;99963.10;86047;1291;22533;-79
2022/10/27 09:30:34;;;;;;;36.80;19.00;;;;;;;14.51;81.07;99962.98;86108;1284;26547;-78
2022/10/27 09:32:37;;;;;;;26.20;18.70;;;;;;;14.55;80.99;99963.48;86151;1287;24685;-79
2022/10/27 09:34:42;;;;;;;37.60;18.20;;;;;;;14.67;81.02;99964.39;85881;1291;25343;-80
2022/10/27 09:36:44;;;;;;;30.10;19.00;;;;;;;14.75;81.09;99960.60;86087;1288;22534;-79